sensor_id;sensor_type;location;lat;lon;timestamp;P1;durP1;ratioP1;P2;durP2;ratioP2
76059;SDS011;64759;52.220;5.170;2022-10-31T00:02:03;20.90;;;6.20;;
76059;SDS011;64759;52.220;5.170;2022-10-31T00:04:29;19.30;;;5.82;;
76059;SDS011;64759;52.220;5.170;2022-10-31T00:06:54;12.57;;;5.20;;
76059;SDS011;64759;52.220;5.170;2022-10-31T00:09:20;9.27;;;5.10;;
76059;SDS011;64759;52.220;5.170;2022-10-31T00:11:45;13.88;;;5.75;;
76059;SDS011;64759;52.220;5.170;2022-10-31T00:14:11;11.00;;;5.30;;
76059;SDS011;64759;52.220;5.170;2022-10-31T00:16:36;9.98;;;4.50;;
76059;SDS011;64759;52.220;5.170;2022-10-31T00:19:03;12.77;;;5.38;;
76059;SDS011;64759;52.220;5.170;2022-10-31T00:21:31;14.50;;;5.63;;
76059;SDS011;64759;52.220;5.170;2022-10-31T00:23:57;8.73;;;4.70;;
76059;SDS011;64759;52.220;5.170;2022-10-31T00:26:24;8.48;;;4.68;;
76059;SDS011;64759;52.220;5.170;2022-10-31T00:28:49;9.75;;;5.43;;
76059;SDS011;64759;52.220;5.170;2022-10-31T00:31:16;13.45;;;5.00;;
76059;SDS011;64759;52.220;5.170;2022-10-31T00:33:42;8.57;;;5.00;;
76059;SDS011;64759;52.220;5.170;2022-10-31T00:36:11;11.90;;;4.78;;
76059;SDS011;64759;52.220;5.170;2022-10-31T00:38:39;11.43;;;4.60;;
76059;SDS011;64759;52.220;5.170;2022-10-31T00:41:05;11.50;;;4.50;;
76059;SDS011;64759;52.220;5.170;2022-10-31T00:43:31;6.57;;;4.40;;
76059;SDS011;64759;52.220;5.170;2022-10-31T00:45:57;12.20;;;5.28;;
76059;SDS011;64759;52.220;5.170;2022-10-31T00:48:23;12.82;;;5.45;;
76059;SDS011;64759;52.220;5.170;2022-10-31T00:50:49;12.18;;;4.70;;
76059;SDS011;64759;52.220;5.170;2022-10-31T00:53:14;11.35;;;5.78;;
76059;SDS011;64759;52.220;5.170;2022-10-31T00:55:40;14.07;;;5.45;;
76059;SDS011;64759;52.220;5.170;2022-10-31T00:58:06;8.13;;;5.25;;
76059;SDS011;64759;52.220;5.170;2022-10-31T01:00:33;9.40;;;4.45;;
76059;SDS011;64759;52.220;5.170;2022-10-31T01:02:58;12.43;;;5.30;;
76059;SDS011;64759;52.220;5.170;2022-10-31T01:05:24;13.18;;;6.07;;
76059;SDS011;64759;52.220;5.170;2022-10-31T01:07:49;10.60;;;5.40;;
76059;SDS011;64759;52.220;5.170;2022-10-31T01:10:15;9.25;;;6.32;;
76059;SDS011;64759;52.220;5.170;2022-10-31T01:12:43;12.90;;;5.28;;
76059;SDS011;64759;52.220;5.170;2022-10-31T01:15:10;15.15;;;6.00;;
76059;SDS011;64759;52.220;5.170;2022-10-31T01:17:37;6.90;;;5.28;;
76059;SDS011;64759;52.220;5.170;2022-10-31T01:20:03;9.70;;;6.10;;
76059;SDS011;64759;52.220;5.170;2022-10-31T01:22:31;9.80;;;5.78;;
76059;SDS011;64759;52.220;5.170;2022-10-31T01:24:59;10.20;;;5.95;;
76059;SDS011;64759;52.220;5.170;2022-10-31T01:27:25;10.48;;;5.88;;
76059;SDS011;64759;52.220;5.170;2022-10-31T01:29:51;10.65;;;6.20;;
76059;SDS011;64759;52.220;5.170;2022-10-31T01:32:16;10.38;;;5.50;;
76059;SDS011;64759;52.220;5.170;2022-10-31T01:34:45;11.02;;;5.55;;
76059;SDS011;64759;52.220;5.170;2022-10-31T01:37:12;10.05;;;5.30;;
76059;SDS011;64759;52.220;5.170;2022-10-31T01:39:38;12.48;;;6.25;;
76059;SDS011;64759;52.220;5.170;2022-10-31T01:42:03;9.82;;;5.68;;
76059;SDS011;64759;52.220;5.170;2022-10-31T01:49:51;10.93;;;5.88;;
76059;SDS011;64759;52.220;5.170;2022-10-31T01:52:24;10.05;;;5.97;;
76059;SDS011;64759;52.220;5.170;2022-10-31T01:54:59;11.27;;;6.70;;
76059;SDS011;64759;52.220;5.170;2022-10-31T01:57:28;8.77;;;5.45;;
76059;SDS011;64759;52.220;5.170;2022-10-31T01:59:58;9.27;;;5.68;;
76059;SDS011;64759;52.220;5.170;2022-10-31T02:02:25;12.00;;;5.70;;
76059;SDS011;64759;52.220;5.170;2022-10-31T02:04:52;10.82;;;5.75;;
76059;SDS011;64759;52.220;5.170;2022-10-31T02:07:38;9.48;;;5.30;;
76059;SDS011;64759;52.220;5.170;2022-10-31T02:10:08;10.88;;;6.22;;
76059;SDS011;64759;52.220;5.170;2022-10-31T02:12:34;12.48;;;5.93;;
76059;SDS011;64759;52.220;5.170;2022-10-31T02:15:03;11.70;;;5.82;;
76059;SDS011;64759;52.220;5.170;2022-10-31T02:17:29;10.48;;;6.35;;
76059;SDS011;64759;52.220;5.170;2022-10-31T02:20:09;9.77;;;6.22;;
76059;SDS011;64759;52.220;5.170;2022-10-31T02:25:40;15.35;;;6.85;;
76059;SDS011;64759;52.220;5.170;2022-10-31T02:34:35;9.35;;;6.45;;
76059;SDS011;64759;52.220;5.170;2022-10-31T02:37:12;10.82;;;6.65;;
76059;SDS011;64759;52.220;5.170;2022-10-31T02:42:25;15.65;;;7.38;;
76059;SDS011;64759;52.220;5.170;2022-10-31T02:47:38;9.38;;;5.72;;
76059;SDS011;64759;52.220;5.170;2022-10-31T02:50:06;12.68;;;7.32;;
76059;SDS011;64759;52.220;5.170;2022-10-31T02:52:38;13.43;;;6.75;;
76059;SDS011;64759;52.220;5.170;2022-10-31T02:58:10;14.43;;;6.78;;
76059;SDS011;64759;52.220;5.170;2022-10-31T03:03:53;12.55;;;7.13;;
76059;SDS011;64759;52.220;5.170;2022-10-31T03:06:45;11.35;;;6.13;;
76059;SDS011;64759;52.220;5.170;2022-10-31T03:09:27;9.48;;;6.40;;
76059;SDS011;64759;52.220;5.170;2022-10-31T03:18:07;8.63;;;6.78;;
76059;SDS011;64759;52.220;5.170;2022-10-31T03:20:11;9.35;;;7.00;;
76059;SDS011;64759;52.220;5.170;2022-10-31T03:22:37;15.02;;;7.40;;
76059;SDS011;64759;52.220;5.170;2022-10-31T03:25:07;10.25;;;6.13;;
76059;SDS011;64759;52.220;5.170;2022-10-31T03:27:34;8.85;;;6.85;;
76059;SDS011;64759;52.220;5.170;2022-10-31T03:30:04;35.17;;;25.73;;
76059;SDS011;64759;52.220;5.170;2022-10-31T03:32:50;15.07;;;9.68;;
76059;SDS011;64759;52.220;5.170;2022-10-31T03:35:21;27.27;;;12.13;;
76059;SDS011;64759;52.220;5.170;2022-10-31T03:37:49;19.65;;;10.70;;
76059;SDS011;64759;52.220;5.170;2022-10-31T03:40:19;16.53;;;10.27;;
76059;SDS011;64759;52.220;5.170;2022-10-31T03:42:53;16.63;;;9.98;;
76059;SDS011;64759;52.220;5.170;2022-10-31T03:45:24;20.27;;;9.98;;
76059;SDS011;64759;52.220;5.170;2022-10-31T03:47:52;15.73;;;9.63;;
76059;SDS011;64759;52.220;5.170;2022-10-31T03:50:19;13.02;;;8.15;;
76059;SDS011;64759;52.220;5.170;2022-10-31T03:52:50;17.95;;;9.40;;
76059;SDS011;64759;52.220;5.170;2022-10-31T03:55:30;15.98;;;9.43;;
76059;SDS011;64759;52.220;5.170;2022-10-31T03:58:12;19.30;;;10.55;;
76059;SDS011;64759;52.220;5.170;2022-10-31T04:00:44;18.10;;;10.90;;
76059;SDS011;64759;52.220;5.170;2022-10-31T04:03:12;17.67;;;10.80;;
76059;SDS011;64759;52.220;5.170;2022-10-31T04:05:51;19.08;;;10.43;;
76059;SDS011;64759;52.220;5.170;2022-10-31T04:08:20;18.15;;;11.48;;
76059;SDS011;64759;52.220;5.170;2022-10-31T04:10:54;16.85;;;11.52;;
76059;SDS011;64759;52.220;5.170;2022-10-31T04:13:28;18.77;;;11.48;;
76059;SDS011;64759;52.220;5.170;2022-10-31T04:16:08;20.58;;;11.52;;
76059;SDS011;64759;52.220;5.170;2022-10-31T04:18:35;17.20;;;11.73;;
76059;SDS011;64759;52.220;5.170;2022-10-31T04:21:03;20.05;;;12.50;;
76059;SDS011;64759;52.220;5.170;2022-10-31T04:23:31;22.90;;;14.02;;
76059;SDS011;64759;52.220;5.170;2022-10-31T04:25:58;23.13;;;13.23;;
76059;SDS011;64759;52.220;5.170;2022-10-31T04:28:24;23.65;;;12.60;;
76059;SDS011;64759;52.220;5.170;2022-10-31T04:30:50;27.27;;;16.92;;
76059;SDS011;64759;52.220;5.170;2022-10-31T04:33:16;21.38;;;14.00;;
76059;SDS011;64759;52.220;5.170;2022-10-31T04:35:44;23.27;;;14.63;;
76059;SDS011;64759;52.220;5.170;2022-10-31T04:38:10;23.60;;;14.25;;
76059;SDS011;64759;52.220;5.170;2022-10-31T04:40:37;25.80;;;14.50;;
76059;SDS011;64759;52.220;5.170;2022-10-31T04:43:37;23.38;;;14.77;;
76059;SDS011;64759;52.220;5.170;2022-10-31T04:46:03;25.48;;;14.45;;
76059;SDS011;64759;52.220;5.170;2022-10-31T04:48:29;25.13;;;15.10;;
76059;SDS011;64759;52.220;5.170;2022-10-31T04:50:58;22.58;;;14.77;;
76059;SDS011;64759;52.220;5.170;2022-10-31T04:53:25;22.65;;;14.38;;
76059;SDS011;64759;52.220;5.170;2022-10-31T04:56:13;22.88;;;14.35;;
76059;SDS011;64759;52.220;5.170;2022-10-31T04:58:45;26.20;;;16.42;;
76059;SDS011;64759;52.220;5.170;2022-10-31T05:01:11;29.65;;;17.58;;
76059;SDS011;64759;52.220;5.170;2022-10-31T05:03:37;24.67;;;17.25;;
76059;SDS011;64759;52.220;5.170;2022-10-31T05:06:08;29.98;;;15.85;;
76059;SDS011;64759;52.220;5.170;2022-10-31T05:08:34;28.02;;;16.10;;
76059;SDS011;64759;52.220;5.170;2022-10-31T05:11:03;27.63;;;16.40;;
76059;SDS011;64759;52.220;5.170;2022-10-31T05:13:33;28.92;;;18.92;;
76059;SDS011;64759;52.220;5.170;2022-10-31T05:16:11;29.10;;;18.00;;
76059;SDS011;64759;52.220;5.170;2022-10-31T05:18:55;29.13;;;17.33;;
76059;SDS011;64759;52.220;5.170;2022-10-31T05:21:39;25.65;;;18.10;;
76059;SDS011;64759;52.220;5.170;2022-10-31T05:24:05;26.85;;;16.27;;
76059;SDS011;64759;52.220;5.170;2022-10-31T05:26:35;31.25;;;17.52;;
76059;SDS011;64759;52.220;5.170;2022-10-31T05:29:01;26.55;;;16.65;;
76059;SDS011;64759;52.220;5.170;2022-10-31T05:31:27;24.80;;;16.25;;
76059;SDS011;64759;52.220;5.170;2022-10-31T05:33:53;25.40;;;16.67;;
76059;SDS011;64759;52.220;5.170;2022-10-31T05:36:37;23.65;;;16.65;;
76059;SDS011;64759;52.220;5.170;2022-10-31T05:39:09;24.23;;;15.48;;
76059;SDS011;64759;52.220;5.170;2022-10-31T05:41:40;24.92;;;17.52;;
76059;SDS011;64759;52.220;5.170;2022-10-31T05:44:15;22.33;;;16.55;;
76059;SDS011;64759;52.220;5.170;2022-10-31T05:46:56;23.80;;;17.05;;
76059;SDS011;64759;52.220;5.170;2022-10-31T05:49:40;27.45;;;17.00;;
76059;SDS011;64759;52.220;5.170;2022-10-31T05:52:24;25.30;;;16.05;;
76059;SDS011;64759;52.220;5.170;2022-10-31T05:54:57;27.42;;;16.88;;
76059;SDS011;64759;52.220;5.170;2022-10-31T05:57:23;25.80;;;15.80;;
76059;SDS011;64759;52.220;5.170;2022-10-31T05:59:49;25.52;;;16.30;;
76059;SDS011;64759;52.220;5.170;2022-10-31T06:02:21;26.05;;;17.02;;
76059;SDS011;64759;52.220;5.170;2022-10-31T06:05:04;31.17;;;19.38;;
76059;SDS011;64759;52.220;5.170;2022-10-31T06:07:32;34.35;;;20.05;;
76059;SDS011;64759;52.220;5.170;2022-10-31T06:09:59;36.05;;;21.75;;
76059;SDS011;64759;52.220;5.170;2022-10-31T06:12:25;36.92;;;20.65;;
76059;SDS011;64759;52.220;5.170;2022-10-31T06:15:15;34.25;;;21.70;;
76059;SDS011;64759;52.220;5.170;2022-10-31T06:17:42;32.42;;;19.50;;
76059;SDS011;64759;52.220;5.170;2022-10-31T06:20:23;32.65;;;19.98;;
76059;SDS011;64759;52.220;5.170;2022-10-31T06:22:56;36.72;;;21.40;;
76059;SDS011;64759;52.220;5.170;2022-10-31T06:25:22;34.13;;;20.50;;
76059;SDS011;64759;52.220;5.170;2022-10-31T06:27:48;38.30;;;21.40;;
76059;SDS011;64759;52.220;5.170;2022-10-31T06:30:14;33.97;;;19.70;;
76059;SDS011;64759;52.220;5.170;2022-10-31T06:32:41;33.50;;;20.60;;
76059;SDS011;64759;52.220;5.170;2022-10-31T06:35:08;37.60;;;20.35;;
76059;SDS011;64759;52.220;5.170;2022-10-31T06:37:36;36.05;;;22.48;;
76059;SDS011;64759;52.220;5.170;2022-10-31T06:40:16;28.52;;;18.98;;
76059;SDS011;64759;52.220;5.170;2022-10-31T06:43:02;32.50;;;20.58;;
76059;SDS011;64759;52.220;5.170;2022-10-31T06:45:29;36.30;;;20.45;;
76059;SDS011;64759;52.220;5.170;2022-10-31T06:48:24;33.72;;;21.13;;
76059;SDS011;64759;52.220;5.170;2022-10-31T06:51:18;37.67;;;21.67;;
76059;SDS011;64759;52.220;5.170;2022-10-31T06:53:44;34.55;;;21.38;;
76059;SDS011;64759;52.220;5.170;2022-10-31T06:56:11;30.10;;;20.38;;
76059;SDS011;64759;52.220;5.170;2022-10-31T06:58:46;29.23;;;19.20;;
76059;SDS011;64759;52.220;5.170;2022-10-31T07:01:12;34.38;;;20.08;;
76059;SDS011;64759;52.220;5.170;2022-10-31T07:03:39;29.45;;;19.40;;
76059;SDS011;64759;52.220;5.170;2022-10-31T07:06:06;28.15;;;18.35;;
76059;SDS011;64759;52.220;5.170;2022-10-31T07:08:33;34.65;;;21.45;;
76059;SDS011;64759;52.220;5.170;2022-10-31T07:10:59;35.42;;;20.98;;
76059;SDS011;64759;52.220;5.170;2022-10-31T07:13:30;35.47;;;20.92;;
76059;SDS011;64759;52.220;5.170;2022-10-31T07:16:06;32.60;;;20.23;;
76059;SDS011;64759;52.220;5.170;2022-10-31T07:18:34;35.55;;;20.17;;
76059;SDS011;64759;52.220;5.170;2022-10-31T07:21:19;30.67;;;20.45;;
76059;SDS011;64759;52.220;5.170;2022-10-31T07:23:47;37.17;;;22.27;;
76059;SDS011;64759;52.220;5.170;2022-10-31T07:26:32;31.40;;;19.95;;
76059;SDS011;64759;52.220;5.170;2022-10-31T07:28:57;35.65;;;22.20;;
76059;SDS011;64759;52.220;5.170;2022-10-31T07:31:24;30.77;;;20.55;;
76059;SDS011;64759;52.220;5.170;2022-10-31T07:33:53;32.53;;;20.83;;
76059;SDS011;64759;52.220;5.170;2022-10-31T07:36:25;29.20;;;19.42;;
76059;SDS011;64759;52.220;5.170;2022-10-31T07:38:53;28.42;;;18.92;;
76059;SDS011;64759;52.220;5.170;2022-10-31T07:41:20;27.90;;;19.02;;
76059;SDS011;64759;52.220;5.170;2022-10-31T07:43:47;36.85;;;21.63;;
76059;SDS011;64759;52.220;5.170;2022-10-31T07:46:16;33.88;;;19.83;;
76059;SDS011;64759;52.220;5.170;2022-10-31T07:49:11;34.42;;;20.92;;
76059;SDS011;64759;52.220;5.170;2022-10-31T07:51:57;34.38;;;20.08;;
76059;SDS011;64759;52.220;5.170;2022-10-31T07:54:41;33.55;;;22.58;;
76059;SDS011;64759;52.220;5.170;2022-10-31T07:57:07;26.52;;;17.80;;
76059;SDS011;64759;52.220;5.170;2022-10-31T07:59:34;32.75;;;20.45;;
76059;SDS011;64759;52.220;5.170;2022-10-31T08:01:59;41.55;;;24.00;;
76059;SDS011;64759;52.220;5.170;2022-10-31T08:04:30;38.67;;;23.33;;
76059;SDS011;64759;52.220;5.170;2022-10-31T08:07:15;40.22;;;24.05;;
76059;SDS011;64759;52.220;5.170;2022-10-31T08:09:48;38.30;;;24.48;;
76059;SDS011;64759;52.220;5.170;2022-10-31T08:12:19;31.77;;;21.65;;
76059;SDS011;64759;52.220;5.170;2022-10-31T08:14:45;36.70;;;23.58;;
76059;SDS011;64759;52.220;5.170;2022-10-31T08:17:12;46.33;;;24.73;;
76059;SDS011;64759;52.220;5.170;2022-10-31T08:19:50;38.50;;;23.70;;
76059;SDS011;64759;52.220;5.170;2022-10-31T08:22:18;40.35;;;24.65;;
76059;SDS011;64759;52.220;5.170;2022-10-31T08:24:44;34.38;;;22.05;;
76059;SDS011;64759;52.220;5.170;2022-10-31T08:27:09;37.92;;;23.08;;
76059;SDS011;64759;52.220;5.170;2022-10-31T08:29:37;35.40;;;22.85;;
76059;SDS011;64759;52.220;5.170;2022-10-31T08:32:05;35.92;;;23.48;;
76059;SDS011;64759;52.220;5.170;2022-10-31T08:34:59;39.15;;;24.00;;
76059;SDS011;64759;52.220;5.170;2022-10-31T08:37:43;33.72;;;20.95;;
76059;SDS011;64759;52.220;5.170;2022-10-31T08:40:09;32.50;;;20.15;;
76059;SDS011;64759;52.220;5.170;2022-10-31T08:42:36;37.42;;;20.98;;
76059;SDS011;64759;52.220;5.170;2022-10-31T08:45:02;29.35;;;19.55;;
76059;SDS011;64759;52.220;5.170;2022-10-31T08:47:29;28.02;;;18.95;;
76059;SDS011;64759;52.220;5.170;2022-10-31T08:49:57;34.78;;;20.88;;
76059;SDS011;64759;52.220;5.170;2022-10-31T08:52:24;31.25;;;21.52;;
76059;SDS011;64759;52.220;5.170;2022-10-31T08:54:55;31.35;;;21.35;;
76059;SDS011;64759;52.220;5.170;2022-10-31T08:57:43;29.45;;;20.13;;
76059;SDS011;64759;52.220;5.170;2022-10-31T09:00:10;33.50;;;21.75;;
76059;SDS011;64759;52.220;5.170;2022-10-31T09:03:00;36.30;;;24.52;;
76059;SDS011;64759;52.220;5.170;2022-10-31T09:05:30;34.92;;;22.38;;
76059;SDS011;64759;52.220;5.170;2022-10-31T09:07:56;32.88;;;22.08;;
76059;SDS011;64759;52.220;5.170;2022-10-31T09:10:24;39.42;;;24.05;;
76059;SDS011;64759;52.220;5.170;2022-10-31T09:12:54;38.13;;;23.52;;
76059;SDS011;64759;52.220;5.170;2022-10-31T09:15:58;38.92;;;22.10;;
76059;SDS011;64759;52.220;5.170;2022-10-31T09:18:24;37.03;;;22.15;;
76059;SDS011;64759;52.220;5.170;2022-10-31T09:20:59;40.13;;;22.02;;
76059;SDS011;64759;52.220;5.170;2022-10-31T09:25:55;41.33;;;22.67;;
76059;SDS011;64759;52.220;5.170;2022-10-31T09:28:29;40.78;;;23.15;;
76059;SDS011;64759;52.220;5.170;2022-10-31T09:31:00;39.00;;;22.75;;
76059;SDS011;64759;52.220;5.170;2022-10-31T09:33:46;47.63;;;25.92;;
76059;SDS011;64759;52.220;5.170;2022-10-31T09:36:30;40.97;;;23.98;;
76059;SDS011;64759;52.220;5.170;2022-10-31T09:38:56;52.50;;;25.38;;
76059;SDS011;64759;52.220;5.170;2022-10-31T09:41:28;37.00;;;23.63;;
76059;SDS011;64759;52.220;5.170;2022-10-31T09:44:10;36.15;;;23.70;;
76059;SDS011;64759;52.220;5.170;2022-10-31T09:52:40;46.83;;;23.85;;
76059;SDS011;64759;52.220;5.170;2022-10-31T09:55:24;48.42;;;26.70;;
76059;SDS011;64759;52.220;5.170;2022-10-31T09:58:04;44.33;;;25.58;;
76059;SDS011;64759;52.220;5.170;2022-10-31T10:00:30;41.03;;;24.77;;
76059;SDS011;64759;52.220;5.170;2022-10-31T10:03:00;37.15;;;24.20;;
76059;SDS011;64759;52.220;5.170;2022-10-31T10:05:46;46.97;;;23.00;;
76059;SDS011;64759;52.220;5.170;2022-10-31T10:08:56;47.67;;;23.08;;
76059;SDS011;64759;52.220;5.170;2022-10-31T10:12:28;39.20;;;22.13;;
76059;SDS011;64759;52.220;5.170;2022-10-31T10:20:31;38.28;;;22.30;;
76059;SDS011;64759;52.220;5.170;2022-10-31T10:23:30;34.38;;;20.45;;
76059;SDS011;64759;52.220;5.170;2022-10-31T10:28:38;31.73;;;18.50;;
76059;SDS011;64759;52.220;5.170;2022-10-31T10:31:14;32.75;;;20.02;;
76059;SDS011;64759;52.220;5.170;2022-10-31T10:36:36;30.45;;;16.88;;
76059;SDS011;64759;52.220;5.170;2022-10-31T10:39:27;27.70;;;15.75;;
76059;SDS011;64759;52.220;5.170;2022-10-31T10:41:59;22.88;;;12.75;;
76059;SDS011;64759;52.220;5.170;2022-10-31T10:44:44;30.75;;;13.80;;
76059;SDS011;64759;52.220;5.170;2022-10-31T10:47:33;26.48;;;13.65;;
76059;SDS011;64759;52.220;5.170;2022-10-31T10:50:28;19.80;;;11.02;;
76059;SDS011;64759;52.220;5.170;2022-10-31T10:53:22;23.08;;;12.00;;
76059;SDS011;64759;52.220;5.170;2022-10-31T10:58:56;18.75;;;10.00;;
76059;SDS011;64759;52.220;5.170;2022-10-31T11:01:22;16.70;;;10.18;;
76059;SDS011;64759;52.220;5.170;2022-10-31T11:03:48;16.77;;;10.63;;
76059;SDS011;64759;52.220;5.170;2022-10-31T11:06:18;17.98;;;11.57;;
76059;SDS011;64759;52.220;5.170;2022-10-31T11:08:47;17.42;;;10.90;;
76059;SDS011;64759;52.220;5.170;2022-10-31T11:13:48;20.98;;;12.82;;
76059;SDS011;64759;52.220;5.170;2022-10-31T11:16:27;16.48;;;11.18;;
76059;SDS011;64759;52.220;5.170;2022-10-31T11:19:04;34.78;;;13.68;;
76059;SDS011;64759;52.220;5.170;2022-10-31T11:21:53;19.73;;;12.80;;
76059;SDS011;64759;52.220;5.170;2022-10-31T11:24:26;21.50;;;12.55;;
76059;SDS011;64759;52.220;5.170;2022-10-31T11:27:02;23.58;;;13.95;;
76059;SDS011;64759;52.220;5.170;2022-10-31T11:29:36;21.85;;;13.77;;
76059;SDS011;64759;52.220;5.170;2022-10-31T11:32:01;23.48;;;14.63;;
76059;SDS011;64759;52.220;5.170;2022-10-31T11:37:03;24.10;;;14.10;;
76059;SDS011;64759;52.220;5.170;2022-10-31T11:39:33;21.20;;;14.23;;
76059;SDS011;64759;52.220;5.170;2022-10-31T11:42:06;24.02;;;14.88;;
76059;SDS011;64759;52.220;5.170;2022-10-31T11:44:32;27.73;;;15.60;;
76059;SDS011;64759;52.220;5.170;2022-10-31T11:47:02;24.35;;;14.48;;
76059;SDS011;64759;52.220;5.170;2022-10-31T11:49:37;26.45;;;15.45;;
76059;SDS011;64759;52.220;5.170;2022-10-31T11:52:07;25.20;;;16.17;;
76059;SDS011;64759;52.220;5.170;2022-10-31T11:58:02;27.05;;;15.73;;
76059;SDS011;64759;52.220;5.170;2022-10-31T12:00:30;30.10;;;17.50;;
76059;SDS011;64759;52.220;5.170;2022-10-31T12:03:15;28.95;;;18.23;;
76059;SDS011;64759;52.220;5.170;2022-10-31T12:06:13;30.45;;;18.30;;
76059;SDS011;64759;52.220;5.170;2022-10-31T12:08:44;33.28;;;16.25;;
76059;SDS011;64759;52.220;5.170;2022-10-31T12:11:23;34.45;;;19.95;;
76059;SDS011;64759;52.220;5.170;2022-10-31T12:25:27;37.88;;;22.25;;
76059;SDS011;64759;52.220;5.170;2022-10-31T12:33:51;40.08;;;21.70;;
76059;SDS011;64759;52.220;5.170;2022-10-31T12:41:52;49.00;;;26.05;;
76059;SDS011;64759;52.220;5.170;2022-10-31T12:44:42;43.33;;;25.48;;
76059;SDS011;64759;52.220;5.170;2022-10-31T12:47:46;38.13;;;24.30;;
76059;SDS011;64759;52.220;5.170;2022-10-31T12:50:47;43.28;;;24.40;;
76059;SDS011;64759;52.220;5.170;2022-10-31T12:53:27;44.03;;;24.02;;
76059;SDS011;64759;52.220;5.170;2022-10-31T12:56:36;46.58;;;25.08;;
76059;SDS011;64759;52.220;5.170;2022-10-31T13:02:25;41.15;;;25.30;;
76059;SDS011;64759;52.220;5.170;2022-10-31T13:05:37;57.47;;;25.52;;
76059;SDS011;64759;52.220;5.170;2022-10-31T13:08:01;46.53;;;24.60;;
76059;SDS011;64759;52.220;5.170;2022-10-31T13:10:40;48.97;;;27.80;;
76059;SDS011;64759;52.220;5.170;2022-10-31T13:15:55;47.38;;;27.15;;
76059;SDS011;64759;52.220;5.170;2022-10-31T13:21:09;50.47;;;26.35;;
76059;SDS011;64759;52.220;5.170;2022-10-31T13:23:40;48.90;;;25.02;;
76059;SDS011;64759;52.220;5.170;2022-10-31T13:26:11;53.03;;;27.20;;
76059;SDS011;64759;52.220;5.170;2022-10-31T13:28:48;50.92;;;27.02;;
76059;SDS011;64759;52.220;5.170;2022-10-31T13:31:42;52.17;;;26.63;;
76059;SDS011;64759;52.220;5.170;2022-10-31T13:34:14;48.97;;;25.20;;
76059;SDS011;64759;52.220;5.170;2022-10-31T13:36:49;51.47;;;25.67;;
76059;SDS011;64759;52.220;5.170;2022-10-31T13:44:50;48.58;;;26.27;;
76059;SDS011;64759;52.220;5.170;2022-10-31T13:47:24;44.70;;;25.42;;
76059;SDS011;64759;52.220;5.170;2022-10-31T13:50:02;57.72;;;26.20;;
76059;SDS011;64759;52.220;5.170;2022-10-31T13:52:43;47.92;;;24.98;;
76059;SDS011;64759;52.220;5.170;2022-10-31T13:55:33;47.88;;;23.52;;
76059;SDS011;64759;52.220;5.170;2022-10-31T13:58:16;48.00;;;24.23;;
76059;SDS011;64759;52.220;5.170;2022-10-31T14:00:46;53.10;;;24.95;;
76059;SDS011;64759;52.220;5.170;2022-10-31T14:03:43;51.67;;;24.45;;
76059;SDS011;64759;52.220;5.170;2022-10-31T14:06:11;42.17;;;22.43;;
76059;SDS011;64759;52.220;5.170;2022-10-31T14:08:47;44.92;;;23.35;;
76059;SDS011;64759;52.220;5.170;2022-10-31T14:11:23;46.30;;;22.38;;
76059;SDS011;64759;52.220;5.170;2022-10-31T14:13:52;37.40;;;20.55;;
76059;SDS011;64759;52.220;5.170;2022-10-31T14:16:24;40.70;;;24.00;;
76059;SDS011;64759;52.220;5.170;2022-10-31T14:18:59;48.47;;;24.33;;
76059;SDS011;64759;52.220;5.170;2022-10-31T14:21:43;42.03;;;24.33;;
76059;SDS011;64759;52.220;5.170;2022-10-31T14:26:54;46.13;;;24.92;;
76059;SDS011;64759;52.220;5.170;2022-10-31T14:29:24;53.85;;;26.75;;
76059;SDS011;64759;52.220;5.170;2022-10-31T14:32:20;57.13;;;26.98;;
76059;SDS011;64759;52.220;5.170;2022-10-31T14:34:55;45.20;;;23.80;;
76059;SDS011;64759;52.220;5.170;2022-10-31T14:45:56;48.33;;;26.92;;
76059;SDS011;64759;52.220;5.170;2022-10-31T14:51:25;49.13;;;26.25;;
76059;SDS011;64759;52.220;5.170;2022-10-31T14:53:56;43.55;;;25.83;;
76059;SDS011;64759;52.220;5.170;2022-10-31T14:56:24;48.60;;;26.30;;
76059;SDS011;64759;52.220;5.170;2022-10-31T14:58:53;40.83;;;24.52;;
76059;SDS011;64759;52.220;5.170;2022-10-31T15:01:28;48.35;;;25.63;;
76059;SDS011;64759;52.220;5.170;2022-10-31T15:04:03;45.33;;;25.15;;
76059;SDS011;64759;52.220;5.170;2022-10-31T15:06:31;42.38;;;25.30;;
76059;SDS011;64759;52.220;5.170;2022-10-31T15:09:04;40.92;;;24.08;;
76059;SDS011;64759;52.220;5.170;2022-10-31T15:11:35;44.67;;;24.38;;
76059;SDS011;64759;52.220;5.170;2022-10-31T15:14:16;46.33;;;24.83;;
76059;SDS011;64759;52.220;5.170;2022-10-31T15:16:57;47.50;;;24.48;;
76059;SDS011;64759;52.220;5.170;2022-10-31T15:19:25;39.00;;;22.63;;
76059;SDS011;64759;52.220;5.170;2022-10-31T15:21:53;43.53;;;22.83;;
76059;SDS011;64759;52.220;5.170;2022-10-31T15:24:20;42.55;;;23.85;;
76059;SDS011;64759;52.220;5.170;2022-10-31T15:26:50;46.40;;;23.58;;
76059;SDS011;64759;52.220;5.170;2022-10-31T15:29:19;46.30;;;25.02;;
76059;SDS011;64759;52.220;5.170;2022-10-31T15:34:28;41.70;;;21.67;;
76059;SDS011;64759;52.220;5.170;2022-10-31T15:36:56;43.70;;;23.08;;
76059;SDS011;64759;52.220;5.170;2022-10-31T15:39:21;42.00;;;23.60;;
76059;SDS011;64759;52.220;5.170;2022-10-31T15:41:51;43.72;;;22.15;;
76059;SDS011;64759;52.220;5.170;2022-10-31T15:44:20;44.35;;;24.13;;
76059;SDS011;64759;52.220;5.170;2022-10-31T15:46:56;39.13;;;22.50;;
76059;SDS011;64759;52.220;5.170;2022-10-31T15:52:06;39.70;;;23.55;;
76059;SDS011;64759;52.220;5.170;2022-10-31T15:54:51;58.42;;;25.30;;
76059;SDS011;64759;52.220;5.170;2022-10-31T15:57:23;39.50;;;23.55;;
76059;SDS011;64759;52.220;5.170;2022-10-31T15:59:51;44.42;;;24.10;;
76059;SDS011;64759;52.220;5.170;2022-10-31T16:02:20;48.88;;;25.70;;
76059;SDS011;64759;52.220;5.170;2022-10-31T16:04:52;44.13;;;24.10;;
76059;SDS011;64759;52.220;5.170;2022-10-31T16:07:18;42.10;;;23.67;;
76059;SDS011;64759;52.220;5.170;2022-10-31T16:09:52;44.38;;;23.88;;
76059;SDS011;64759;52.220;5.170;2022-10-31T16:12:23;50.20;;;26.98;;
76059;SDS011;64759;52.220;5.170;2022-10-31T16:14:51;46.83;;;25.25;;
76059;SDS011;64759;52.220;5.170;2022-10-31T16:17:20;45.13;;;23.88;;
76059;SDS011;64759;52.220;5.170;2022-10-31T16:19:52;51.10;;;26.60;;
76059;SDS011;64759;52.220;5.170;2022-10-31T16:22:36;51.17;;;24.40;;
76059;SDS011;64759;52.220;5.170;2022-10-31T16:27:46;54.65;;;27.42;;
76059;SDS011;64759;52.220;5.170;2022-10-31T16:30:27;46.75;;;26.20;;
76059;SDS011;64759;52.220;5.170;2022-10-31T16:32:58;53.75;;;27.75;;
76059;SDS011;64759;52.220;5.170;2022-10-31T16:35:31;50.20;;;26.27;;
76059;SDS011;64759;52.220;5.170;2022-10-31T16:37:57;52.40;;;27.42;;
76059;SDS011;64759;52.220;5.170;2022-10-31T16:40:23;51.83;;;25.92;;
76059;SDS011;64759;52.220;5.170;2022-10-31T16:42:49;60.15;;;26.42;;
76059;SDS011;64759;52.220;5.170;2022-10-31T16:45:16;48.17;;;27.77;;
76059;SDS011;64759;52.220;5.170;2022-10-31T16:47:44;49.65;;;27.02;;
76059;SDS011;64759;52.220;5.170;2022-10-31T16:50:13;52.72;;;26.70;;
76059;SDS011;64759;52.220;5.170;2022-10-31T16:52:41;54.47;;;26.30;;
76059;SDS011;64759;52.220;5.170;2022-10-31T16:55:10;47.85;;;25.73;;
76059;SDS011;64759;52.220;5.170;2022-10-31T16:57:38;50.58;;;25.58;;
76059;SDS011;64759;52.220;5.170;2022-10-31T17:00:12;55.13;;;26.13;;
76059;SDS011;64759;52.220;5.170;2022-10-31T17:02:39;53.88;;;26.85;;